createdAt,value
2022-12-01T00:01:19.795Z,100984.84
2022-12-01T00:03:46.967Z,100988.81
2022-12-01T00:06:17.896Z,100975.00
2022-12-01T00:09:06.747Z,100995.72
2022-12-01T00:11:35.778Z,100996.75
2022-12-01T00:14:03.124Z,100993.97
2022-12-01T00:16:30.803Z,100989.66
2022-12-01T00:18:57.863Z,100997.94
2022-12-01T00:21:26.865Z,100991.13
2022-12-01T00:23:56.554Z,100992.31
2022-12-01T00:26:25.367Z,100989.09
2022-12-01T00:28:55.385Z,100990.38
2022-12-01T00:31:23.408Z,101004.19
2022-12-01T00:33:50.881Z,100992.22
2022-12-01T00:36:17.767Z,100986.53
2022-12-01T00:38:44.803Z,101003.84
2022-12-01T00:41:11.677Z,101000.25
2022-12-01T00:43:39.719Z,100994.53
2022-12-01T00:46:06.651Z,100997.78
2022-12-01T00:48:33.802Z,100991.69
2022-12-01T00:51:00.832Z,101001.19
2022-12-01T00:53:27.746Z,100993.44
2022-12-01T00:55:54.744Z,100999.97
2022-12-01T00:58:22.970Z,101008.25
2022-12-01T01:00:57.211Z,101000.88
2022-12-01T01:03:24.078Z,101011.38
2022-12-01T01:05:50.962Z,101015.25
2022-12-01T01:08:18.038Z,101017.81
2022-12-01T01:10:47.712Z,101017.72
2022-12-01T01:13:15.356Z,101018.66
2022-12-01T01:15:42.458Z,101016.47
2022-12-01T01:18:12.490Z,101003.84
2022-12-01T01:20:39.509Z,101008.34
2022-12-01T01:23:06.626Z,101011.56
2022-12-01T01:25:33.942Z,101027.66
2022-12-01T01:28:00.926Z,101025.72
2022-12-01T01:30:28.396Z,101025.72
2022-12-01T01:32:55.365Z,101033.38
2022-12-01T01:35:22.249Z,101038.06
2022-12-01T01:37:50.889Z,101038.53
2022-12-01T01:40:18.672Z,101042.72
2022-12-01T01:42:45.717Z,101035.66
2022-12-01T01:45:29.563Z,101046.03
2022-12-01T01:47:59.426Z,101033.47
2022-12-01T01:50:28.833Z,101029.00
2022-12-01T01:53:01.670Z,101035.28
2022-12-01T01:55:32.103Z,101030.88
2022-12-01T01:57:59.754Z,101029.78
2022-12-01T02:00:26.749Z,101027.38
2022-12-01T02:02:53.818Z,101043.41
2022-12-01T02:05:31.162Z,101037.47
2022-12-01T02:07:59.758Z,101034.56
2022-12-01T02:10:47.664Z,101029.75
2022-12-01T02:13:47.163Z,101024.44
2022-12-01T02:16:39.486Z,101036.91
2022-12-01T02:19:50.026Z,101027.94
2022-12-01T02:23:02.100Z,101028.22
2022-12-01T02:26:08.138Z,101031.94
2022-12-01T02:29:06.099Z,101021.06
2022-12-01T02:32:23.982Z,101014.47
2022-12-01T02:35:06.863Z,101017.41
2022-12-01T02:37:36.462Z,101011.78
2022-12-01T02:40:23.930Z,101014.66
2022-12-01T02:43:07.200Z,101007.09
2022-12-01T02:45:45.598Z,101017.66
2022-12-01T02:48:19.414Z,101003.22
2022-12-01T02:50:46.853Z,101009.44
2022-12-01T02:53:17.628Z,101011.25
2022-12-01T02:55:54.722Z,101013.00
2022-12-01T02:58:21.966Z,101020.53
2022-12-01T03:01:07.206Z,101006.00
2022-12-01T03:03:52.880Z,101007.66
2022-12-01T03:06:43.194Z,101007.34
2022-12-01T03:09:39.635Z,101016.28
2022-12-01T03:12:50.019Z,101021.88
2022-12-01T03:15:38.777Z,101014.06
2022-12-01T03:18:34.849Z,101006.88
2022-12-01T03:21:33.826Z,101003.38
2022-12-01T03:24:10.746Z,101006.38
2022-12-01T03:26:41.222Z,101007.19
2022-12-01T03:29:20.796Z,101001.22
2022-12-01T03:32:52.718Z,101007.22
2022-12-01T03:35:30.958Z,101008.53
2022-12-01T03:38:04.574Z,100996.91
2022-12-01T03:40:36.685Z,100994.41
2022-12-01T03:43:09.796Z,101002.25
2022-12-01T03:46:08.086Z,100992.63
2022-12-01T03:48:35.237Z,101001.88
2022-12-01T03:51:16.391Z,101001.50
2022-12-01T03:53:57.170Z,100995.25
2022-12-01T03:56:30.702Z,100979.53
2022-12-01T03:59:00.380Z,100975.97
2022-12-01T04:01:32.876Z,100980.69
2022-12-01T04:04:10.501Z,100994.31
2022-12-01T04:06:38.398Z,100993.00
2022-12-01T04:09:05.378Z,100997.69
2022-12-01T04:11:50.677Z,100996.75
2022-12-01T04:14:17.620Z,101011.25
2022-12-01T04:16:44.624Z,100993.41
2022-12-01T04:19:11.847Z,101007.47
2022-12-01T04:21:38.808Z,100995.16
2022-12-01T04:24:06.130Z,101001.31
2022-12-01T04:26:36.525Z,100990.19
2022-12-01T04:29:10.539Z,100980.72
2022-12-01T04:31:37.913Z,100991.53
2022-12-01T04:34:05.751Z,100988.22
2022-12-01T04:36:35.198Z,100989.34
2022-12-01T04:39:03.171Z,100986.31
2022-12-01T04:41:30.105Z,100990.69
2022-12-01T04:43:57.044Z,100995.16
2022-12-01T04:46:25.084Z,100985.63
2022-12-01T04:48:52.417Z,100995.34
2022-12-01T04:51:19.532Z,100993.78
2022-12-01T04:53:46.495Z,100991.56
2022-12-01T04:56:13.553Z,100994.78
2022-12-01T04:58:40.686Z,100991.13
2022-12-01T05:01:11.681Z,101002.09
2022-12-01T05:03:41.425Z,101003.63
2022-12-01T05:06:13.445Z,100999.44
2022-12-01T05:08:41.407Z,100991.81
2022-12-01T05:11:11.857Z,101009.59
2022-12-01T05:13:40.224Z,101023.53
2022-12-01T05:16:19.708Z,101009.75
2022-12-01T05:19:18.198Z,101011.19
2022-12-01T05:21:47.338Z,101021.06
2022-12-01T05:24:15.182Z,101023.34
2022-12-01T05:26:43.376Z,101021.75
2022-12-01T05:29:11.091Z,101020.41
2022-12-01T05:31:39.694Z,101028.63
2022-12-01T05:34:07.878Z,101024.41
2022-12-01T05:36:34.953Z,101023.44
2022-12-01T05:39:01.862Z,101019.75
2022-12-01T05:41:28.781Z,101025.91
2022-12-01T05:43:55.761Z,101018.38
2022-12-01T05:46:22.838Z,101020.13
2022-12-01T05:48:49.870Z,101020.06
2022-12-01T05:51:17.625Z,101025.50
2022-12-01T05:53:45.073Z,101025.31
2022-12-01T05:56:12.333Z,101030.22
2022-12-01T05:58:39.298Z,101028.69
2022-12-01T06:01:06.554Z,101028.41
2022-12-01T06:03:33.671Z,101023.47
2022-12-01T06:06:00.883Z,101017.34
2022-12-01T06:08:28.111Z,101019.25
2022-12-01T06:10:55.030Z,101024.56
2022-12-01T06:13:21.892Z,101026.88
2022-12-01T06:15:59.316Z,101031.91
2022-12-01T06:18:27.546Z,101035.53
2022-12-01T06:20:54.476Z,101037.50
2022-12-01T06:23:22.713Z,101034.22
2022-12-01T06:25:51.209Z,101038.94
2022-12-01T06:28:18.389Z,101028.31
2022-12-01T06:30:45.581Z,101029.22
2022-12-01T06:33:12.594Z,101026.06
2022-12-01T06:35:39.617Z,101039.03
2022-12-01T06:38:06.564Z,101052.59
2022-12-01T06:40:33.576Z,101047.22
2022-12-01T06:43:05.605Z,101042.84
2022-12-01T06:45:32.704Z,101048.84
2022-12-01T06:47:59.640Z,101045.97
2022-12-01T06:50:26.557Z,101054.97
2022-12-01T06:52:54.915Z,101065.44
2022-12-01T06:55:22.052Z,101076.34
2022-12-01T06:57:49.403Z,101085.06
2022-12-01T07:00:16.858Z,101079.13
2022-12-01T07:02:44.334Z,101086.81
2022-12-01T07:05:11.310Z,101089.59
2022-12-01T07:07:39.586Z,101084.06
2022-12-01T07:10:08.245Z,101079.75
2022-12-01T07:12:35.304Z,101076.88
2022-12-01T07:15:02.434Z,101077.25
2022-12-01T07:17:29.867Z,101082.22
2022-12-01T07:19:57.167Z,101076.06
2022-12-01T07:22:29.474Z,101094.94
2022-12-01T07:24:59.269Z,101102.56
2022-12-01T07:27:30.702Z,101100.50
2022-12-01T07:29:57.776Z,101097.91
2022-12-01T07:32:24.762Z,101082.22
2022-12-01T07:34:51.733Z,101087.38
2022-12-01T07:37:18.688Z,101070.59
2022-12-01T07:39:45.556Z,101062.25
2022-12-01T07:42:12.612Z,101077.41
2022-12-01T07:44:39.555Z,101079.16
2022-12-01T07:47:06.677Z,101091.66
2022-12-01T07:49:34.326Z,101092.09
2022-12-01T07:52:01.392Z,101094.41
2022-12-01T07:54:28.280Z,101083.69
2022-12-01T07:56:55.125Z,101079.72
2022-12-01T07:59:22.109Z,101083.56
2022-12-01T08:01:49.071Z,101089.09
2022-12-01T08:04:16.017Z,101079.72
2022-12-01T08:06:43.002Z,101091.66
2022-12-01T08:09:09.969Z,101088.34
2022-12-01T08:11:36.981Z,101097.09
2022-12-01T08:14:03.926Z,101096.00
2022-12-01T08:16:31.416Z,101103.31
2022-12-01T08:18:58.555Z,101101.34
2022-12-01T08:21:25.734Z,101098.50
2022-12-01T08:23:55.606Z,101091.69
2022-12-01T08:26:24.992Z,101100.91
2022-12-01T08:28:52.086Z,101104.63
2022-12-01T08:31:29.718Z,101092.75
2022-12-01T08:33:57.237Z,101083.75
2022-12-01T08:36:25.292Z,101086.03
2022-12-01T08:38:54.482Z,101096.00
2022-12-01T08:41:22.515Z,101090.28
2022-12-01T08:43:58.807Z,101093.03
2022-12-01T08:46:29.558Z,101111.53
2022-12-01T08:48:57.477Z,101126.75
2022-12-01T08:51:24.789Z,101131.81
2022-12-01T08:53:51.714Z,101122.50
2022-12-01T08:56:31.238Z,101121.75
2022-12-01T08:58:59.159Z,101107.22
2022-12-01T09:01:28.657Z,101111.34
2022-12-01T09:04:10.516Z,101120.09
2022-12-01T09:06:43.507Z,101114.84
2022-12-01T09:09:13.948Z,101113.69
2022-12-01T09:11:43.616Z,101110.97
2022-12-01T09:14:12.606Z,101110.78
2022-12-01T09:16:40.753Z,101112.63
2022-12-01T09:19:07.941Z,101102.94
2022-12-01T09:21:37.357Z,101111.63
2022-12-01T09:24:06.483Z,101110.78
2022-12-01T09:26:34.281Z,101119.75
2022-12-01T09:29:08.588Z,101118.84
2022-12-01T09:31:36.285Z,101110.44
2022-12-01T09:34:06.329Z,101112.78
2022-12-01T09:36:35.581Z,101109.59
2022-12-01T09:39:04.642Z,101108.44
2022-12-01T09:41:44.565Z,101113.22
2022-12-01T09:44:26.346Z,101109.44
2022-12-01T09:47:29.150Z,101120.72
2022-12-01T09:50:18.781Z,101103.50
2022-12-01T09:52:54.425Z,101103.16
2022-12-01T09:55:24.613Z,101103.47
2022-12-01T09:57:55.706Z,101102.44
2022-12-01T10:00:27.749Z,101113.22
2022-12-01T10:03:09.768Z,101113.31
2022-12-01T10:06:25.260Z,101103.84
2022-12-01T10:08:52.711Z,101106.00
2022-12-01T10:11:36.305Z,101103.41
2022-12-01T10:14:04.625Z,101091.28
2022-12-01T10:16:40.243Z,101092.88
2022-12-01T10:19:32.906Z,101093.66
2022-12-01T10:22:44.502Z,101091.66
2022-12-01T10:25:21.975Z,101082.84
2022-12-01T10:28:46.322Z,101086.69
2022-12-01T10:31:19.200Z,101071.19
2022-12-01T10:34:25.502Z,101085.78
2022-12-01T10:36:52.504Z,101075.66
2022-12-01T10:39:39.116Z,101071.56
2022-12-01T10:42:47.234Z,101078.00
2022-12-01T10:45:27.916Z,101075.06
2022-12-01T10:48:22.576Z,101064.16
2022-12-01T10:50:57.522Z,101057.06
2022-12-01T10:53:25.247Z,101061.47
2022-12-01T10:56:14.240Z,101062.69
2022-12-01T10:58:54.693Z,101049.06
2022-12-01T11:01:35.953Z,101051.88
2022-12-01T11:04:06.076Z,101051.13
2022-12-01T11:06:33.349Z,101049.28
2022-12-01T11:09:07.195Z,101049.63
2022-12-01T11:11:37.054Z,101046.03
2022-12-01T11:14:17.585Z,101037.97
2022-12-01T11:16:48.076Z,101036.53
2022-12-01T11:19:34.582Z,101037.56
2022-12-01T11:22:20.088Z,101031.44
2022-12-01T11:24:53.191Z,101044.41
2022-12-01T11:27:54.231Z,101033.38
2022-12-01T11:30:27.600Z,101020.03
2022-12-01T11:32:59.069Z,101026.25
2022-12-01T11:35:36.761Z,101040.97
2022-12-01T11:38:28.841Z,101023.75
2022-12-01T11:40:55.589Z,101017.72
2022-12-01T11:43:30.115Z,101017.47
2022-12-01T11:46:04.773Z,101014.59
2022-12-01T11:48:36.211Z,101013.38
2022-12-01T11:51:08.188Z,101013.22
2022-12-01T11:53:39.496Z,101014.06
2022-12-01T11:56:28.724Z,101010.56
2022-12-01T11:59:11.938Z,101006.03
2022-12-01T12:02:07.131Z,100991.50
2022-12-01T12:05:24.522Z,100988.72
2022-12-01T12:08:23.025Z,100995.00
2022-12-01T12:11:06.780Z,100998.94
2022-12-01T12:14:10.018Z,101003.44
2022-12-01T12:16:51.313Z,101006.94
2022-12-01T12:19:52.246Z,101008.16
2022-12-01T12:22:53.735Z,101005.28
2022-12-01T12:25:56.289Z,101011.00
2022-12-01T12:28:35.410Z,101010.63
2022-12-01T12:31:02.260Z,101006.22
2022-12-01T12:33:53.900Z,100999.41
2022-12-01T12:36:38.641Z,100999.03
2022-12-01T12:39:37.872Z,101005.63
2022-12-01T12:42:20.085Z,100985.78
2022-12-01T12:45:07.227Z,100987.03
2022-12-01T12:48:07.362Z,100986.69
2022-12-01T12:50:54.758Z,100994.88
2022-12-01T12:53:28.228Z,100994.59
2022-12-01T12:56:00.069Z,101006.13
2022-12-01T12:58:37.827Z,100996.94
2022-12-01T13:01:17.541Z,101002.19
2022-12-01T13:03:53.271Z,101004.09
2022-12-01T13:06:40.664Z,101004.94
2022-12-01T13:09:27.950Z,101001.28
2022-12-01T13:12:06.938Z,100990.94
2022-12-01T13:14:44.070Z,100997.47
2022-12-01T13:17:35.986Z,100997.56
2022-12-01T13:20:05.859Z,100996.66
2022-12-01T13:22:35.466Z,100990.28
2022-12-01T13:25:04.446Z,100989.31
2022-12-01T13:27:43.119Z,100989.63
2022-12-01T13:30:24.294Z,100987.44
2022-12-01T13:33:03.021Z,100984.59
2022-12-01T13:35:40.042Z,100984.41
2022-12-01T13:38:35.824Z,100980.97
2022-12-01T13:41:30.523Z,100977.47
2022-12-01T13:44:20.166Z,100993.66
2022-12-01T13:46:47.124Z,100996.81
2022-12-01T13:49:39.630Z,100998.81
2022-12-01T13:52:21.882Z,100992.75
2022-12-01T13:55:07.650Z,100991.84
2022-12-01T13:57:57.130Z,100984.19
2022-12-01T14:00:31.582Z,100989.63
2022-12-01T14:03:16.653Z,100980.69
2022-12-01T14:05:51.573Z,100977.84
2022-12-01T14:08:31.550Z,100972.22
2022-12-01T14:11:24.453Z,100984.66
2022-12-01T14:14:11.668Z,100970.09
2022-12-01T14:16:58.665Z,100978.75
2022-12-01T14:19:35.970Z,100982.25
2022-12-01T14:22:05.373Z,100982.44
2022-12-01T14:24:38.491Z,100975.25
2022-12-01T14:27:06.580Z,100977.75
2022-12-01T14:29:44.711Z,100979.31
2022-12-01T14:32:17.564Z,100987.69
2022-12-01T14:34:44.925Z,100981.59
2022-12-01T14:37:18.999Z,100977.13
2022-12-01T14:40:07.861Z,100977.00
2022-12-01T14:43:03.487Z,100992.31
2022-12-01T14:45:43.070Z,100990.16
2022-12-01T14:48:14.328Z,100983.66
2022-12-01T14:50:58.706Z,100975.91
2022-12-01T14:53:40.742Z,100977.28
2022-12-01T14:56:17.840Z,100970.75
2022-12-01T14:58:59.845Z,100956.84
2022-12-01T15:01:37.230Z,100967.44
2022-12-01T15:04:06.655Z,100965.50
2022-12-01T15:06:35.919Z,100960.97
2022-12-01T15:12:07.610Z,100962.72
2022-12-01T15:14:47.850Z,100961.44
2022-12-01T15:17:34.507Z,100976.19
2022-12-01T15:20:02.005Z,100967.44
2022-12-01T15:22:31.826Z,100970.19
2022-12-01T15:25:15.575Z,100966.59
2022-12-01T15:27:45.677Z,100966.59
2022-12-01T15:30:16.822Z,100968.25
2022-12-01T15:32:45.804Z,100983.16
2022-12-01T15:35:23.589Z,100973.03
2022-12-01T15:37:52.654Z,100970.41
2022-12-01T15:41:00.144Z,100976.91
2022-12-01T15:43:24.874Z,100974.13
2022-12-01T15:45:55.851Z,100978.63
2022-12-01T15:48:35.392Z,100978.94
2022-12-01T15:51:18.237Z,100984.09
2022-12-01T15:53:53.802Z,100986.59
2022-12-01T15:56:52.047Z,100988.66
2022-12-01T15:59:41.715Z,100996.66
2022-12-01T16:02:33.223Z,100993.00
2022-12-01T16:05:09.395Z,100993.84
2022-12-01T16:08:12.194Z,100987.66
2022-12-01T16:10:36.046Z,100990.88
2022-12-01T16:13:46.916Z,100983.78
2022-12-01T16:16:45.286Z,100982.03
2022-12-01T16:19:12.109Z,100982.38
2022-12-01T16:22:11.381Z,100987.28
2022-12-01T16:24:49.165Z,100987.28
2022-12-01T16:27:28.856Z,100981.72
2022-12-01T16:30:06.348Z,100981.09
2022-12-01T16:32:38.981Z,100984.75
2022-12-01T16:35:30.525Z,100982.38
2022-12-01T16:37:58.541Z,100990.47
2022-12-01T16:40:26.181Z,100984.81
2022-12-01T16:42:53.199Z,100987.97
2022-12-01T16:45:21.144Z,100987.56
2022-12-01T16:47:49.994Z,100990.94
2022-12-01T16:50:19.757Z,100988.22
2022-12-01T16:52:47.003Z,100989.88
2022-12-01T16:55:29.506Z,100996.25
2022-12-01T16:57:56.691Z,100983.19
2022-12-01T17:00:24.062Z,100989.88
2022-12-01T17:02:52.655Z,100983.78
2022-12-01T17:05:20.057Z,100986.28
2022-12-01T17:07:47.582Z,100977.72
2022-12-01T17:10:15.107Z,100990.69
2022-12-01T17:12:42.180Z,100992.75
2022-12-01T17:15:10.294Z,100993.84
2022-12-01T17:17:37.320Z,100990.94
2022-12-01T17:20:06.792Z,100992.84
2022-12-01T17:22:34.906Z,100994.59
2022-12-01T17:25:02.546Z,101002.31
2022-12-01T17:27:31.403Z,101007.28
2022-12-01T17:29:59.788Z,100998.09
2022-12-01T17:32:27.671Z,101005.25
2022-12-01T17:34:54.856Z,101002.50
2022-12-01T17:37:22.065Z,101001.66
2022-12-01T17:39:50.500Z,101000.84
2022-12-01T17:42:17.440Z,101006.00
2022-12-01T17:44:44.724Z,101003.50
2022-12-01T17:47:12.232Z,101011.13
2022-12-01T17:49:39.234Z,101008.38
2022-12-01T17:52:07.083Z,101007.00
2022-12-01T17:54:34.418Z,101019.53
2022-12-01T17:57:01.410Z,101013.72
2022-12-01T17:59:28.321Z,101010.47
2022-12-01T18:01:55.488Z,101012.78
2022-12-01T18:04:22.414Z,101002.31
2022-12-01T18:06:53.740Z,100999.47
2022-12-01T18:09:21.660Z,101002.22
2022-12-01T18:11:49.148Z,100997.00
2022-12-01T18:14:19.203Z,101006.13
2022-12-01T18:16:46.149Z,100996.00
2022-12-01T18:19:13.483Z,101000.16
2022-12-01T18:21:41.098Z,101009.47
2022-12-01T18:24:09.234Z,100998.81
2022-12-01T18:26:39.918Z,100997.81
2022-12-01T18:29:18.465Z,100996.06
2022-12-01T18:31:47.220Z,100997.69
2022-12-01T18:34:14.209Z,100987.00
2022-12-01T18:36:41.966Z,100989.88
2022-12-01T18:39:11.083Z,100994.75
2022-12-01T18:41:38.336Z,100995.84
2022-12-01T18:44:05.643Z,100985.28
2022-12-01T18:46:33.047Z,100986.38
2022-12-01T18:49:03.110Z,100986.50
2022-12-01T18:51:35.252Z,100981.03
2022-12-01T18:54:04.450Z,100980.38
2022-12-01T18:56:32.282Z,100979.56
2022-12-01T18:59:02.664Z,100982.88
2022-12-01T19:01:37.292Z,100976.22
2022-12-01T19:04:05.828Z,100980.13
2022-12-01T19:06:35.541Z,100975.38
2022-12-01T19:09:05.303Z,100983.13
2022-12-01T19:11:33.237Z,100988.75
2022-12-01T19:14:00.201Z,100982.13
2022-12-01T19:16:27.234Z,100971.66
2022-12-01T19:18:54.223Z,100972.75
2022-12-01T19:21:21.319Z,100971.25
2022-12-01T19:23:49.230Z,100973.09
2022-12-01T19:26:20.487Z,100980.97
2022-12-01T19:28:48.213Z,100970.13
2022-12-01T19:31:23.482Z,100964.63
2022-12-01T19:33:52.513Z,100969.69
2022-12-01T19:36:23.658Z,100973.09
2022-12-01T19:38:51.608Z,100973.25
2022-12-01T19:41:20.806Z,100977.59
2022-12-01T19:43:48.371Z,100988.34
2022-12-01T19:46:19.254Z,100976.41
2022-12-01T19:48:47.294Z,100988.63
2022-12-01T19:51:24.575Z,100975.09
2022-12-01T19:53:52.926Z,100967.28
2022-12-01T19:56:20.301Z,100966.63
2022-12-01T19:58:47.246Z,100972.69
2022-12-01T20:01:16.527Z,100977.06
2022-12-01T20:03:47.809Z,100968.13
2022-12-01T20:06:19.457Z,100964.88
2022-12-01T20:08:46.771Z,100970.13
2022-12-01T20:11:14.485Z,100973.44
2022-12-01T20:13:44.396Z,100969.94
2022-12-01T20:16:22.299Z,100956.97
2022-12-01T20:18:51.156Z,100977.00
2022-12-01T20:21:20.580Z,100962.22
2022-12-01T20:23:58.752Z,100968.13
2022-12-01T20:26:38.946Z,100964.63
2022-12-01T20:29:10.557Z,100954.50
2022-12-01T20:31:38.750Z,100958.38
2022-12-01T20:34:14.346Z,100961.97
2022-12-01T20:36:41.238Z,100967.19
2022-12-01T20:39:09.346Z,100959.28
2022-12-01T20:41:36.897Z,100962.78
2022-12-01T20:44:07.561Z,100965.34
2022-12-01T20:46:36.409Z,100963.13
2022-12-01T20:49:05.224Z,100961.88
2022-12-01T20:51:33.394Z,100965.34
2022-12-01T20:56:49.340Z,100962.78
2022-12-01T20:59:16.264Z,100955.31
2022-12-01T21:01:43.243Z,100964.56
2022-12-01T21:04:10.278Z,100946.00
2022-12-01T21:06:37.247Z,100959.28
2022-12-01T21:09:05.126Z,100959.28
2022-12-01T21:12:02.561Z,100951.00
2022-12-01T21:14:45.326Z,100957.63
2022-12-01T21:17:33.763Z,100951.00
2022-12-01T21:20:33.796Z,100957.81
2022-12-01T21:23:12.762Z,100958.91
2022-12-01T21:25:41.492Z,100950.28
2022-12-01T21:28:25.932Z,100958.72
2022-12-01T21:31:15.575Z,100954.59
2022-12-01T21:33:43.030Z,100948.34
2022-12-01T21:36:17.065Z,100951.31
2022-12-01T21:38:45.060Z,100951.38
2022-12-01T21:41:26.782Z,100954.69
2022-12-01T21:44:05.220Z,100952.56
2022-12-01T21:46:32.248Z,100951.75
2022-12-01T21:49:01.377Z,100952.50
2022-12-01T21:51:28.678Z,100945.50
2022-12-01T21:53:56.901Z,100948.47
2022-12-01T21:56:28.896Z,100948.06
2022-12-01T21:58:59.543Z,100942.41
2022-12-01T22:01:32.767Z,100941.69
2022-12-01T22:04:02.904Z,100938.09
2022-12-01T22:06:40.433Z,100943.84
2022-12-01T22:09:35.753Z,100948.28
2022-12-01T22:12:28.083Z,100944.59
2022-12-01T22:15:01.162Z,100945.16
2022-12-01T22:17:29.043Z,100934.03
2022-12-01T22:20:02.552Z,100947.00
2022-12-01T22:22:30.615Z,100944.13
2022-12-01T22:25:27.155Z,100936.47
2022-12-01T22:27:54.534Z,100943.06
2022-12-01T22:30:23.929Z,100943.06
2022-12-01T22:33:00.890Z,100937.91
2022-12-01T22:35:40.301Z,100941.97
2022-12-01T22:38:07.177Z,100932.41
2022-12-01T22:40:48.570Z,100936.25
2022-12-01T22:43:18.431Z,100935.81
2022-12-01T22:46:15.396Z,100933.41
2022-12-01T22:48:57.685Z,100937.72
2022-12-01T22:51:49.682Z,100930.59
2022-12-01T22:54:16.475Z,100941.03
2022-12-01T22:56:50.805Z,100931.94
2022-12-01T22:59:37.701Z,100927.94
2022-12-01T23:02:34.509Z,100929.44
2022-12-01T23:05:27.790Z,100933.50
2022-12-01T23:07:55.720Z,100931.38
2022-12-01T23:10:34.102Z,100923.09
2022-12-01T23:13:29.372Z,100924.94
2022-12-01T23:15:56.718Z,100921.63
2022-12-01T23:18:33.499Z,100923.03
2022-12-01T23:21:01.933Z,100928.16
2022-12-01T23:23:38.163Z,100919.78
2022-12-01T23:26:08.118Z,100929.53
2022-12-01T23:28:39.102Z,100923.47
2022-12-01T23:31:06.138Z,100920.34
2022-12-01T23:33:35.210Z,100918.41
2022-12-01T23:36:24.601Z,100915.75
2022-12-01T23:38:57.805Z,100914.81
2022-12-01T23:41:41.262Z,100911.34
2022-12-01T23:44:46.346Z,100903.16
2022-12-01T23:47:29.291Z,100893.75
2022-12-01T23:50:04.074Z,100894.50
2022-12-01T23:52:35.797Z,100898.75
2022-12-01T23:55:15.437Z,100884.38
2022-12-01T23:57:43.094Z,100885.97
